Coral Coast — WDF5120 — position and weather

sailwx.info

Track history (hours):
 
Tides and Currents Weather Stations Pressure Air Temp Water Temp Dewpoint Dewpoint Depression Visibility Wind Speed Wind Dir Waves Ship Positions

Coral Coast

Owner: Dann MarineTowing, LC., Chesapeake City, MD. More information available from US FCC via Universal Licensing System and Coast Guard Vessel Documentation Center.

Last reported at 2015-Sep-03 13:33 UTC. Time now 2015-Sep-03 17:18 UTC.
Position N 37°46' W 075°15'.

Length 70 m; draft 5.3 m.

Type: Tug. MMSI: 367459570.

Date/timePositionNaut miles runAvg speedWind from/ knotsBaromVisibWave heightAir tempDewpointWater temp
2015-Sep-03 13:33N 37°46' W 075°15'1410.3
2015-Sep-03 12:10N 37°57' W 075°03'610.4
2015-Sep-03 11:33N 38°03' W 074°59'9 9.4
2015-Sep-03 10:33N 38°11' W 074°54'1010.1
2015-Sep-03 09:33N 38°21' W 074°50'11 9.8
2015-Sep-03 08:26N 38°31' W 074°46'8 9.6
2015-Sep-03 07:34N 38°39' W 074°42'10 9.6
2015-Sep-03 06:34N 38°48' W 074°37'9 9.4
2015-Sep-03 05:34N 38°56' W 074°32'9 9.3
2015-Sep-03 04:34N 39°05' W 074°26'9 9.1
2015-Sep-03 03:34N 39°12' W 074°20'9 9.1
2015-Sep-03 02:34N 39°20' W 074°14'9 9.0
2015-Sep-03 01:33N 39°28' W 074°09'9 9.0
2015-Sep-03 00:33N 39°36' W 074°04'9 9.1
2015-Sep-02 23:33N 39°45' W 073°59'9 8.7
2015-Sep-02 22:33N 39°53' W 073°58'9 8.9
2015-Sep-02 21:33N 40°02' W 073°56'9 8.9
2015-Sep-02 20:34N 40°11' W 073°55'9 9.0
2015-Sep-02 19:33N 40°20' W 073°54'9 9.1
2015-Sep-02 18:34N 40°29' W 073°56'9 8.9
2015-Sep-02 17:34N 40°36' W 074°03'7 7.5
2015-Sep-02 16:34N 40°43' W 073°58'6 6.5
2015-Sep-02 15:33N 40°48' W 073°54'3 3.2
2015-Sep-02 14:33N 40°46' W 073°51'0 0.0
2015-Sep-02 13:34N 40°46' W 073°51'0 0.0
2015-Sep-02 12:34N 40°46' W 073°51'0 0.0
2015-Sep-02 11:34N 40°46' W 073°51'0 0.0
2015-Sep-02 10:34N 40°46' W 073°51'0 0.0
2015-Sep-02 09:33N 40°46' W 073°51'0 0.0
2015-Sep-02 08:33N 40°46' W 073°51'0 0.0
2015-Sep-02 07:34N 40°46' W 073°51'4 3.7
2015-Sep-02 06:34N 40°47' W 073°55'6 5.9
2015-Sep-02 05:34N 40°42' W 073°60'9 8.6
2015-Sep-02 04:34N 40°39' W 074°10'1 1.4
2015-Sep-02 03:34N 40°38' W 074°12'0 0.0
2015-Sep-02 02:34N 40°38' W 074°12'0 0.0
2015-Sep-02 01:33N 40°38' W 074°12'0 0.1
2015-Sep-02 00:34N 40°38' W 074°12'9 9.4
2015-Sep-01 23:34N 40°42' W 074°00'9 8.6
2015-Sep-01 22:33N 40°48' W 073°52'2 2.1
2015-Sep-01 21:34N 40°46' W 073°51'0 0.0
2015-Sep-01 20:33N 40°46' W 073°51'0 0.0
2015-Sep-01 19:34N 40°46' W 073°51'0 0.0
2015-Sep-01 18:33N 40°46' W 073°51'0 0.0
2015-Sep-01 17:33N 40°46' W 073°51'1 0.8
2015-Sep-01 16:33N 40°46' W 073°51'4 3.9
2015-Sep-01 15:34N 40°46' W 073°56'5 5.4
2015-Sep-01 14:34N 40°43' W 074°02'1 0.5
2015-Sep-01 13:34N 40°43' W 074°01'0 0.2
2015-Sep-01 12:34N 40°43' W 074°02'1 0.9
2015-Sep-01 11:34N 40°44' W 074°01'2 1.9
2015-Sep-01 10:34N 40°46' W 074°01'3 2.8
2015-Sep-01 09:34N 40°48' W 073°59'6 5.5
2015-Sep-01 08:34N 40°53' W 073°56'11 4.6
2015-Sep-01 06:17N 41°04' W 073°53'5 4.7
2015-Sep-01 05:08N 41°09' W 073°53'2 3.7
2015-Sep-01 04:29N 41°11' W 073°56'4 3.8
2015-Sep-01 03:33N 41°14' W 073°58'  
2015-Aug-27 20:33N 40°57' W 073°54'6 6.3
2015-Aug-27 19:33N 40°51' W 073°57'6 6.1
2015-Aug-27 18:33N 40°46' W 074°01'3 2.8
2015-Aug-27 17:33N 40°44' W 073°58'6 5.9
2015-Aug-27 16:33N 40°46' W 073°51'0 0.4
2015-Aug-27 15:33N 40°46' W 073°51'0 0.0
2015-Aug-27 14:33N 40°46' W 073°51'0 0.0
2015-Aug-27 13:33N 40°46' W 073°51'0 0.0
2015-Aug-27 12:33N 40°46' W 073°51'0 0.0
2015-Aug-27 11:33N 40°46' W 073°51'0 0.0
2015-Aug-27 10:33N 40°46' W 073°51'0 0.0
2015-Aug-27 09:33N 40°46' W 073°51'0 0.0
2015-Aug-27 08:34N 40°46' W 073°51'0 0.0
2015-Aug-27 07:33N 40°46' W 073°51'0 0.0
2015-Aug-27 06:33N 40°46' W 073°51'0 0.0
2015-Aug-27 05:33N 40°46' W 073°51'0 0.0
2015-Aug-27 04:33N 40°46' W 073°51'0 0.0
2015-Aug-27 03:33N 40°46' W 073°51'0 0.0
2015-Aug-27 02:33N 40°46' W 073°51'0 0.0
2015-Aug-27 01:33N 40°46' W 073°51'0 0.0
2015-Aug-27 00:33N 40°46' W 073°51'6 6.0
2015-Aug-26 23:33N 40°44' W 073°58'1010.5
2015-Aug-26 22:33N 40°39' W 074°10'1 1.4
2015-Aug-26 21:33N 40°38' W 074°12'7 6.3
2015-Aug-26 20:27N 40°32' W 074°15'7 3.5
2015-Aug-26 18:31N 40°30' W 074°07'1 0.3
2015-Aug-26 16:32N 40°30' W 074°06'1 1.0
2015-Aug-26 15:33N 40°30' W 074°07'0 0.4
2015-Aug-26 14:32N 40°30' W 074°07'2 2.4
2015-Aug-26 13:33N 40°30' W 074°11'4 1.3
2015-Aug-26 10:08N 40°33' W 074°15'4 6.7
2015-Aug-26 09:33N 40°37' W 074°12'8 7.8
2015-Aug-26 08:33N 40°40' W 074°03'9 8.7
2015-Aug-26 07:33N 40°47' W 073°56'4 1.3
2015-Aug-26 04:21N 40°46' W 073°51'0 0.0
2015-Aug-26 00:31N 40°46' W 073°51'0 0.0
2015-Aug-25 22:18N 40°46' W 073°51'0 0.0
2015-Aug-25 18:33N 40°46' W 073°51'0 0.0
2015-Aug-25 17:33N 40°46' W 073°51'0 0.0
2015-Aug-25 16:33N 40°46' W 073°51'0 0.0
2015-Aug-25 15:33N 40°46' W 073°51'0 0.0
2015-Aug-25 14:33N 40°46' W 073°51'0 0.0
2015-Aug-25 13:33N 40°46' W 073°51'0 0.0
2015-Aug-25 12:33N 40°46' W 073°51'0 0.0
2015-Aug-25 11:33N 40°46' W 073°51'0 0.0
2015-Aug-25 10:33N 40°46' W 073°51'3 3.3
2015-Aug-25 09:33N 40°48' W 073°54'7 7.0
2015-Aug-25 08:33N 40°42' W 073°59'2 2.4
2015-Aug-25 07:33N 40°44' W 074°01'3 2.9
2015-Aug-25 06:33N 40°47' W 073°60'4 3.6
2015-Aug-25 05:33N 40°50' W 073°57'4 4.3
2015-Aug-25 04:33N 40°54' W 073°55'5 4.5
2015-Aug-25 03:33N 40°58' W 073°54'5 4.8
2015-Aug-25 02:31N 41°03' W 073°53'4 4.2
2015-Aug-25 01:31N 41°08' W 073°53'4 4.0
2015-Aug-25 00:33N 41°11' W 073°56'  
Track history (hours):
 
Tides and Currents Weather Stations Pressure Air Temp Water Temp Dewpoint Dewpoint Depression Visibility Wind Speed Wind Dir Waves Ship Positions

Coral Coast

Owner: Dann MarineTowing, LC., Chesapeake City, MD. More information available from US FCC via Universal Licensing System and Coast Guard Vessel Documentation Center.

Last reported at 2015-Sep-03 13:33 UTC. Time now 2015-Sep-03 17:18 UTC.
Position N 37°46' W 075°15'.

Length 70 m; draft 5.3 m.

Type: Tug. MMSI: 367459570.

Date/timePositionNaut miles runAvg speedWind from/ knotsBaromVisibWave heightAir tempDewpointWater temp
2015-Sep-03 13:33N 37°46' W 075°15'1410.3
2015-Sep-03 12:10N 37°57' W 075°03'610.4
2015-Sep-03 11:33N 38°03' W 074°59'9 9.4
2015-Sep-03 10:33N 38°11' W 074°54'1010.1
2015-Sep-03 09:33N 38°21' W 074°50'11 9.8
2015-Sep-03 08:26N 38°31' W 074°46'8 9.6
2015-Sep-03 07:34N 38°39' W 074°42'10 9.6
2015-Sep-03 06:34N 38°48' W 074°37'9 9.4
2015-Sep-03 05:34N 38°56' W 074°32'9 9.3
2015-Sep-03 04:34N 39°05' W 074°26'9 9.1
2015-Sep-03 03:34N 39°12' W 074°20'9 9.1
2015-Sep-03 02:34N 39°20' W 074°14'9 9.0
2015-Sep-03 01:33N 39°28' W 074°09'9 9.0
2015-Sep-03 00:33N 39°36' W 074°04'9 9.1
2015-Sep-02 23:33N 39°45' W 073°59'9 8.7
2015-Sep-02 22:33N 39°53' W 073°58'9 8.9
2015-Sep-02 21:33N 40°02' W 073°56'9 8.9
2015-Sep-02 20:34N 40°11' W 073°55'9 9.0
2015-Sep-02 19:33N 40°20' W 073°54'9 9.1
2015-Sep-02 18:34N 40°29' W 073°56'9 8.9
2015-Sep-02 17:34N 40°36' W 074°03'7 7.5
2015-Sep-02 16:34N 40°43' W 073°58'6 6.5
2015-Sep-02 15:33N 40°48' W 073°54'3 3.2
2015-Sep-02 14:33N 40°46' W 073°51'0 0.0
2015-Sep-02 13:34N 40°46' W 073°51'0 0.0
2015-Sep-02 12:34N 40°46' W 073°51'0 0.0
2015-Sep-02 11:34N 40°46' W 073°51'0 0.0
2015-Sep-02 10:34N 40°46' W 073°51'0 0.0
2015-Sep-02 09:33N 40°46' W 073°51'0 0.0
2015-Sep-02 08:33N 40°46' W 073°51'0 0.0
2015-Sep-02 07:34N 40°46' W 073°51'4 3.7
2015-Sep-02 06:34N 40°47' W 073°55'6 5.9
2015-Sep-02 05:34N 40°42' W 073°60'9 8.6
2015-Sep-02 04:34N 40°39' W 074°10'1 1.4
2015-Sep-02 03:34N 40°38' W 074°12'0 0.0
2015-Sep-02 02:34N 40°38' W 074°12'0 0.0
2015-Sep-02 01:33N 40°38' W 074°12'0 0.1
2015-Sep-02 00:34N 40°38' W 074°12'9 9.4
2015-Sep-01 23:34N 40°42' W 074°00'9 8.6
2015-Sep-01 22:33N 40°48' W 073°52'2 2.1
2015-Sep-01 21:34N 40°46' W 073°51'0 0.0
2015-Sep-01 20:33N 40°46' W 073°51'0 0.0
2015-Sep-01 19:34N 40°46' W 073°51'0 0.0
2015-Sep-01 18:33N 40°46' W 073°51'0 0.0
2015-Sep-01 17:33N 40°46' W 073°51'1 0.8
2015-Sep-01 16:33N 40°46' W 073°51'4 3.9
2015-Sep-01 15:34N 40°46' W 073°56'5 5.4
2015-Sep-01 14:34N 40°43' W 074°02'1 0.5
2015-Sep-01 13:34N 40°43' W 074°01'0 0.2
2015-Sep-01 12:34N 40°43' W 074°02'1 0.9
2015-Sep-01 11:34N 40°44' W 074°01'2 1.9
2015-Sep-01 10:34N 40°46' W 074°01'3 2.8
2015-Sep-01 09:34N 40°48' W 073°59'6 5.5
2015-Sep-01 08:34N 40°53' W 073°56'11 4.6
2015-Sep-01 06:17N 41°04' W 073°53'5 4.7
2015-Sep-01 05:08N 41°09' W 073°53'2 3.7
2015-Sep-01 04:29N 41°11' W 073°56'4 3.8
2015-Sep-01 03:33N 41°14' W 073°58'  
2015-Aug-27 20:33N 40°57' W 073°54'6 6.3
2015-Aug-27 19:33N 40°51' W 073°57'6 6.1
2015-Aug-27 18:33N 40°46' W 074°01'3 2.8
2015-Aug-27 17:33N 40°44' W 073°58'6 5.9
2015-Aug-27 16:33N 40°46' W 073°51'0 0.4
2015-Aug-27 15:33N 40°46' W 073°51'0 0.0
2015-Aug-27 14:33N 40°46' W 073°51'0 0.0
2015-Aug-27 13:33N 40°46' W 073°51'0 0.0
2015-Aug-27 12:33N 40°46' W 073°51'0 0.0
2015-Aug-27 11:33N 40°46' W 073°51'0 0.0
2015-Aug-27 10:33N 40°46' W 073°51'0 0.0
2015-Aug-27 09:33N 40°46' W 073°51'0 0.0
2015-Aug-27 08:34N 40°46' W 073°51'0 0.0
2015-Aug-27 07:33N 40°46' W 073°51'0 0.0
2015-Aug-27 06:33N 40°46' W 073°51'0 0.0
2015-Aug-27 05:33N 40°46' W 073°51'0 0.0
2015-Aug-27 04:33N 40°46' W 073°51'0 0.0
2015-Aug-27 03:33N 40°46' W 073°51'0 0.0
2015-Aug-27 02:33N 40°46' W 073°51'0 0.0
2015-Aug-27 01:33N 40°46' W 073°51'0 0.0
2015-Aug-27 00:33N 40°46' W 073°51'6 6.0
2015-Aug-26 23:33N 40°44' W 073°58'1010.5
2015-Aug-26 22:33N 40°39' W 074°10'1 1.4
2015-Aug-26 21:33N 40°38' W 074°12'7 6.3
2015-Aug-26 20:27N 40°32' W 074°15'7 3.5
2015-Aug-26 18:31N 40°30' W 074°07'1 0.3
2015-Aug-26 16:32N 40°30' W 074°06'1 1.0
2015-Aug-26 15:33N 40°30' W 074°07'0 0.4
2015-Aug-26 14:32N 40°30' W 074°07'2 2.4
2015-Aug-26 13:33N 40°30' W 074°11'4 1.3
2015-Aug-26 10:08N 40°33' W 074°15'4 6.7
2015-Aug-26 09:33N 40°37' W 074°12'8 7.8
2015-Aug-26 08:33N 40°40' W 074°03'9 8.7
2015-Aug-26 07:33N 40°47' W 073°56'4 1.3
2015-Aug-26 04:21N 40°46' W 073°51'0 0.0
2015-Aug-26 00:31N 40°46' W 073°51'0 0.0
2015-Aug-25 22:18N 40°46' W 073°51'0 0.0
2015-Aug-25 18:33N 40°46' W 073°51'0 0.0
2015-Aug-25 17:33N 40°46' W 073°51'0 0.0
2015-Aug-25 16:33N 40°46' W 073°51'0 0.0
2015-Aug-25 15:33N 40°46' W 073°51'0 0.0
2015-Aug-25 14:33N 40°46' W 073°51'0 0.0
2015-Aug-25 13:33N 40°46' W 073°51'0 0.0
2015-Aug-25 12:33N 40°46' W 073°51'0 0.0
2015-Aug-25 11:33N 40°46' W 073°51'0 0.0
2015-Aug-25 10:33N 40°46' W 073°51'3 3.3
2015-Aug-25 09:33N 40°48' W 073°54'7 7.0
2015-Aug-25 08:33N 40°42' W 073°59'2 2.4
2015-Aug-25 07:33N 40°44' W 074°01'3 2.9
2015-Aug-25 06:33N 40°47' W 073°60'4 3.6
2015-Aug-25 05:33N 40°50' W 073°57'4 4.3
2015-Aug-25 04:33N 40°54' W 073°55'5 4.5
2015-Aug-25 03:33N 40°58' W 073°54'5 4.8
2015-Aug-25 02:31N 41°03' W 073°53'4 4.2
2015-Aug-25 01:31N 41°08' W 073°53'4 4.0
2015-Aug-25 00:33N 41°11' W 073°56'  

Dump ship's entire track history